Time,TemperatureF,DewpointF,PressureIn,WindDirection,WindDirectionDegrees,WindSpeedMPH,WindSpeedGustMPH,Humidity,HourlyPrecipIn,Conditions,Clouds,dailyrainin,SoftwareType,DateUTC
2013-03-17 00:00:00,25.2,12.1,29.86,NW,306,1.0,5.0,57,0.00,,,0.00,Wunderground v.1.15,2013-03-17 04:00:00,
2013-03-17 00:05:00,25.2,12.1,29.86,NW,306,1.0,5.0,57,0.00,,,0.00,Wunderground v.1.15,2013-03-17 04:05:00,
2013-03-17 00:10:00,25.1,12.4,29.86,NW,306,1.0,5.0,58,0.00,,,0.00,Wunderground v.1.15,2013-03-17 04:10:00,
2013-03-17 00:20:00,24.9,12.2,29.86,NW,306,1.0,1.0,58,0.00,,,0.00,Wunderground v.1.15,2013-03-17 04:20:00,
2013-03-17 00:25:00,24.9,12.2,29.86,NW,306,0.0,5.0,58,0.00,,,0.00,Wunderground v.1.15,2013-03-17 04:25:00,
2013-03-17 00:35:00,24.7,12.4,29.86,NW,306,1.0,5.0,59,0.00,,,0.00,Wunderground v.1.15,2013-03-17 04:35:00,
2013-03-17 00:40:00,24.5,12.6,29.86,NW,306,0.0,5.0,60,0.00,,,0.00,Wunderground v.1.15,2013-03-17 04:40:00,
2013-03-17 00:45:00,24.4,12.5,29.86,NW,306,0.0,5.0,60,0.00,,,0.00,Wunderground v.1.15,2013-03-17 04:45:00,
2013-03-17 00:50:00,24.3,12.4,29.86,NW,306,0.0,5.0,60,0.00,,,0.00,Wunderground v.1.15,2013-03-17 04:50:00,
2013-03-17 00:55:00,24.2,12.3,29.86,NW,306,0.0,5.0,60,0.00,,,0.00,Wunderground v.1.15,2013-03-17 04:55:00,
2013-03-17 01:00:00,24.1,12.6,29.86,NW,306,0.0,5.0,61,0.00,,,0.00,Wunderground v.1.15,2013-03-17 05:00:00,
2013-03-17 01:10:00,23.9,12.8,29.86,NW,306,0.0,5.0,62,0.00,,,0.00,Wunderground v.1.15,2013-03-17 05:10:00,
2013-03-17 01:15:00,23.9,12.8,29.86,NW,306,1.0,5.0,62,0.00,,,0.00,Wunderground v.1.15,2013-03-17 05:15:00,
2013-03-17 01:20:00,23.7,12.6,29.86,NW,306,1.0,1.0,62,0.00,,,0.00,Wunderground v.1.15,2013-03-17 05:20:00,
2013-03-17 01:30:00,22.5,12.8,29.86,NW,306,0.0,5.0,66,0.00,,,0.00,Wunderground v.1.15,2013-03-17 05:30:00,
2013-03-17 01:35:00,21.9,13.3,29.86,NW,306,0.0,5.0,69,0.00,,,0.00,Wunderground v.1.15,2013-03-17 05:35:00,
2013-03-17 01:45:00,21.3,13.4,29.87,NW,306,0.0,5.0,71,0.00,,,0.00,Wunderground v.1.15,2013-03-17 05:45:00,
2013-03-17 01:50:00,21.2,15.1,29.86,NW,306,0.0,5.0,77,0.00,,,0.00,Wunderground v.1.15,2013-03-17 05:50:00,
2013-03-17 01:55:00,21.1,12.8,29.87,NW,306,0.0,5.0,70,0.00,,,0.00,Wunderground v.1.15,2013-03-17 05:55:00,
2013-03-17 02:00:00,21.0,12.7,29.87,NW,306,1.0,5.0,70,0.00,,,0.00,Wunderground v.1.15,2013-03-17 06:00:00,
2013-03-17 02:05:00,20.8,12.9,29.87,NW,306,1.0,5.0,71,0.00,,,0.00,Wunderground v.1.15,2013-03-17 06:05:00,
2013-03-17 02:10:00,20.9,13.0,29.87,NW,306,1.0,1.0,71,0.00,,,0.00,Wunderground v.1.15,2013-03-17 06:10:00,
2013-03-17 02:15:00,20.7,12.8,29.87,NW,306,0.0,5.0,71,0.00,,,0.00,Wunderground v.1.15,2013-03-17 06:15:00,
2013-03-17 02:20:00,20.4,12.5,29.87,NW,306,0.0,5.0,71,0.00,,,0.00,Wunderground v.1.15,2013-03-17 06:20:00,
2013-03-17 02:25:00,20.1,12.5,29.87,NW,306,0.0,5.0,72,0.00,,,0.00,Wunderground v.1.15,2013-03-17 06:25:00,
2013-03-17 02:30:00,19.8,12.5,29.87,NW,306,0.0,5.0,73,0.00,,,0.00,Wunderground v.1.15,2013-03-17 06:30:00,
2013-03-17 02:35:00,19.7,12.1,29.87,NW,306,0.0,5.0,72,0.00,,,0.00,Wunderground v.1.15,2013-03-17 06:35:00,
2013-03-17 02:45:00,19.5,12.6,29.86,NW,306,0.0,5.0,74,0.00,,,0.00,Wunderground v.1.15,2013-03-17 06:45:00,
2013-03-17 02:55:00,19.8,12.5,29.87,NW,306,0.0,5.0,73,0.00,,,0.00,Wunderground v.1.15,2013-03-17 06:55:00,
2013-03-17 03:00:00,19.7,13.4,29.87,NW,306,1.0,1.0,76,0.00,,,0.00,Wunderground v.1.15,2013-03-17 07:00:00,
2013-03-17 03:05:00,19.7,12.8,29.87,NW,306,0.0,5.0,74,0.00,,,0.00,Wunderground v.1.15,2013-03-17 07:05:00,
2013-03-17 03:10:00,19.8,12.5,29.87,NW,306,0.0,5.0,73,0.00,,,0.00,Wunderground v.1.15,2013-03-17 07:10:00,
2013-03-17 03:15:00,19.9,12.6,29.86,NW,306,1.0,5.0,73,0.00,,,0.00,Wunderground v.1.15,2013-03-17 07:15:00,
2013-03-17 03:25:00,19.3,12.7,29.87,NW,306,0.0,5.0,75,0.00,,,0.00,Wunderground v.1.15,2013-03-17 07:25:00,
2013-03-17 03:30:00,19.2,12.3,29.88,NW,306,1.0,1.0,74,0.00,,,0.00,Wunderground v.1.15,2013-03-17 07:30:00,
2013-03-17 03:35:00,19.3,12.4,29.88,NW,306,1.0,5.0,74,0.00,,,0.00,Wunderground v.1.15,2013-03-17 07:35:00,
2013-03-17 03:45:00,19.2,12.0,29.87,NW,306,0.0,5.0,73,0.00,,,0.00,Wunderground v.1.15,2013-03-17 07:45:00,
2013-03-17 03:50:00,19.3,12.1,29.88,NW,306,1.0,5.0,73,0.00,,,0.00,Wunderground v.1.15,2013-03-17 07:50:00,
2013-03-17 03:55:00,19.4,12.2,29.88,NW,306,1.0,5.0,73,0.00,,,0.00,Wunderground v.1.15,2013-03-17 07:55:00,
2013-03-17 04:00:00,19.7,11.8,29.88,NW,306,0.0,5.0,71,0.00,,,0.00,Wunderground v.1.15,2013-03-17 08:00:00,
2013-03-17 04:05:00,19.9,12.0,29.88,NW,306,0.0,5.0,71,0.00,,,0.00,Wunderground v.1.15,2013-03-17 08:05:00,
2013-03-17 04:10:00,19.7,12.1,29.88,NW,306,0.0,5.0,72,0.00,,,0.00,Wunderground v.1.15,2013-03-17 08:10:00,
2013-03-17 04:15:00,19.8,11.9,29.88,NW,306,0.0,5.0,71,0.00,,,0.00,Wunderground v.1.15,2013-03-17 08:15:00,
2013-03-17 04:20:00,19.8,11.9,29.89,NW,306,0.0,5.0,71,0.00,,,0.00,Wunderground v.1.15,2013-03-17 08:20:00,
2013-03-17 04:30:00,19.7,11.8,29.89,NW,306,0.0,5.0,71,0.00,,,0.00,Wunderground v.1.15,2013-03-17 08:30:00,
2013-03-17 04:35:00,19.6,12.0,29.89,NW,306,0.0,5.0,72,0.00,,,0.00,Wunderground v.1.15,2013-03-17 08:35:00,
2013-03-17 04:40:00,19.0,11.1,29.89,NW,306,0.0,5.0,71,0.00,,,0.00,Wunderground v.1.15,2013-03-17 08:40:00,
2013-03-17 04:45:00,17.8,10.6,29.89,NW,306,1.0,5.0,73,0.00,,,0.00,Wunderground v.1.15,2013-03-17 08:45:00,
2013-03-17 04:55:00,16.4,10.4,29.89,NW,306,0.0,5.0,77,0.00,,,0.00,Wunderground v.1.15,2013-03-17 08:55:00,
2013-03-17 05:00:00,16.0,10.6,29.89,NW,306,0.0,5.0,79,0.00,,,0.00,Wunderground v.1.15,2013-03-17 09:00:00,
2013-03-17 05:10:00,15.9,11.1,29.89,NW,306,0.0,5.0,81,0.00,,,0.00,Wunderground v.1.15,2013-03-17 09:10:00,
2013-03-17 05:15:00,16.5,11.7,29.89,NW,306,0.0,5.0,81,0.00,,,0.00,Wunderground v.1.15,2013-03-17 09:15:00,
2013-03-17 05:20:00,16.9,11.8,29.89,NW,306,0.0,5.0,80,0.00,,,0.00,Wunderground v.1.15,2013-03-17 09:20:00,
2013-03-17 05:25:00,17.3,11.9,29.89,NW,306,0.0,5.0,79,0.00,,,0.00,Wunderground v.1.15,2013-03-17 09:25:00,
2013-03-17 05:30:00,17.7,12.0,29.89,NW,306,0.0,5.0,78,0.00,,,0.00,Wunderground v.1.15,2013-03-17 09:30:00,
2013-03-17 05:40:00,17.6,11.6,29.90,WNW,290,1.0,5.0,77,0.00,,,0.00,Wunderground v.1.15,2013-03-17 09:40:00,
2013-03-17 05:45:00,17.7,12.0,29.90,WNW,303,1.0,5.0,78,0.00,,,0.00,Wunderground v.1.15,2013-03-17 09:45:00,
2013-03-17 05:50:00,17.8,12.1,29.91,NNW,331,2.0,2.0,78,0.00,,,0.00,Wunderground v.1.15,2013-03-17 09:50:00,
2013-03-17 06:00:00,17.9,12.2,29.91,NNW,331,1.0,1.0,78,0.00,,,0.00,Wunderground v.1.15,2013-03-17 10:00:00,
2013-03-17 06:05:00,18.3,12.6,29.91,NNW,331,1.0,2.0,78,0.00,,,0.00,Wunderground v.1.15,2013-03-17 10:05:00,
2013-03-17 06:15:00,19.0,12.7,29.90,NW,304,2.0,5.0,76,0.00,,,0.00,Wunderground v.1.15,2013-03-17 10:15:00,
2013-03-17 06:20:00,19.2,12.6,29.91,NW,323,4.0,4.0,75,0.00,,,0.00,Wunderground v.1.15,2013-03-17 10:20:00,
2013-03-17 06:25:00,19.5,12.9,29.91,NW,316,4.0,5.0,75,0.00,,,0.00,Wunderground v.1.15,2013-03-17 10:25:00,
2013-03-17 06:30:00,20.0,13.0,29.91,NNW,345,3.0,5.0,74,0.00,,,0.00,Wunderground v.1.15,2013-03-17 10:30:00,
2013-03-17 06:35:00,20.3,13.0,29.91,NW,325,3.0,5.0,73,0.00,,,0.00,Wunderground v.1.15,2013-03-17 10:35:00,
2013-03-17 06:40:00,20.5,13.2,29.91,NW,314,2.0,5.0,73,0.00,,,0.00,Wunderground v.1.15,2013-03-17 10:40:00,
2013-03-17 06:45:00,20.4,12.5,29.91,NW,321,3.0,5.0,71,0.00,,,0.00,Wunderground v.1.15,2013-03-17 10:45:00,
2013-03-17 06:50:00,19.4,14.2,29.91,NW,308,3.0,3.0,80,0.00,,,0.00,Wunderground v.1.15,2013-03-17 10:50:00,
2013-03-17 06:55:00,18.8,12.5,29.91,NW,311,2.0,5.0,76,0.00,,,0.00,Wunderground v.1.15,2013-03-17 10:55:00,
2013-03-17 07:00:00,19.0,12.7,29.91,NW,317,2.0,5.0,76,0.00,,,0.00,Wunderground v.1.15,2013-03-17 11:00:00,
2013-03-17 07:05:00,19.3,12.1,29.91,NW,319,2.0,5.0,73,0.00,,,0.00,Wunderground v.1.15,2013-03-17 11:05:00,
2013-03-17 07:15:00,18.2,12.2,29.92,NW,312,3.0,5.0,77,0.00,,,0.00,Wunderground v.1.15,2013-03-17 11:15:00,
2013-03-17 07:20:00,19.4,13.1,29.92,NW,319,4.0,5.0,76,0.00,,,0.00,Wunderground v.1.15,2013-03-17 11:20:00,
2013-03-17 07:25:00,20.1,13.1,29.92,NW,317,5.0,5.0,74,0.00,,,0.00,Wunderground v.1.15,2013-03-17 11:25:00,
2013-03-17 07:30:00,20.2,12.9,29.93,NW,313,4.0,5.0,73,0.00,,,0.00,Wunderground v.1.15,2013-03-17 11:30:00,
2013-03-17 07:35:00,20.2,12.6,29.94,NW,319,4.0,6.0,72,0.00,,,0.00,Wunderground v.1.15,2013-03-17 11:35:00,
2013-03-17 07:40:00,20.1,12.8,29.94,NW,315,5.0,6.0,73,0.00,,,0.00,Wunderground v.1.15,2013-03-17 11:40:00,
2013-03-17 07:45:00,20.1,13.1,29.95,NW,326,5.0,6.0,74,0.00,,,0.00,Wunderground v.1.15,2013-03-17 11:45:00,
2013-03-17 07:50:00,20.2,12.9,29.95,NW,321,5.0,5.0,73,0.00,,,0.00,Wunderground v.1.15,2013-03-17 11:50:00,
2013-03-17 07:55:00,20.1,13.1,29.95,NW,307,5.0,5.0,74,0.00,,,0.00,Wunderground v.1.15,2013-03-17 11:55:00,
2013-03-17 08:05:00,20.0,12.4,29.96,NW,312,4.0,5.0,72,0.00,,,0.00,Wunderground v.1.15,2013-03-17 12:05:00,
2013-03-17 08:10:00,20.4,12.2,29.96,North,351,4.0,4.0,70,0.00,,,0.00,Wunderground v.1.15,2013-03-17 12:10:00,
2013-03-17 08:15:00,20.4,11.8,29.96,NNE,13,3.0,5.0,69,0.00,,,0.00,Wunderground v.1.15,2013-03-17 12:15:00,
2013-03-17 08:20:00,20.9,11.3,29.96,NW,315,3.0,5.0,66,0.00,,,0.00,Wunderground v.1.15,2013-03-17 12:20:00,
2013-03-17 08:25:00,21.7,9.9,29.97,NW,323,4.0,6.0,60,0.00,,,0.00,Wunderground v.1.15,2013-03-17 12:25:00,
2013-03-17 08:30:00,22.4,9.1,29.97,WNW,294,5.0,5.0,56,0.00,,,0.00,Wunderground v.1.15,2013-03-17 12:30:00,
2013-03-17 08:35:00,22.8,9.0,29.97,WNW,298,5.0,5.0,55,0.00,,,0.00,Wunderground v.1.15,2013-03-17 12:35:00,
2013-03-17 08:40:00,23.0,9.2,29.97,NNW,342,5.0,7.0,55,0.00,,,0.00,Wunderground v.1.15,2013-03-17 12:40:00,
2013-03-17 08:45:00,22.9,9.1,29.97,NW,310,5.0,7.0,55,0.00,,,0.00,Wunderground v.1.15,2013-03-17 12:45:00,
2013-03-17 08:50:00,22.9,9.5,29.97,NW,321,5.0,7.0,56,0.00,,,0.00,Wunderground v.1.15,2013-03-17 12:50:00,
2013-03-17 09:00:00,22.9,9.9,29.97,NW,311,5.0,5.0,57,0.00,,,0.00,Wunderground v.1.15,2013-03-17 13:00:00,
2013-03-17 09:10:00,22.6,11.2,29.97,NW,313,5.0,5.0,61,0.00,,,0.00,Wunderground v.1.15,2013-03-17 13:10:00,
2013-03-17 09:15:00,22.4,11.0,29.97,NW,321,6.0,8.0,61,0.00,,,0.00,Wunderground v.1.15,2013-03-17 13:15:00,
2013-03-17 09:20:00,22.5,10.7,29.97,NNW,331,6.0,8.0,60,0.00,,,0.00,Wunderground v.1.15,2013-03-17 13:20:00,
2013-03-17 09:25:00,22.4,11.7,29.97,NW,306,7.0,8.0,63,0.00,,,0.00,Wunderground v.1.15,2013-03-17 13:25:00,
2013-03-17 09:30:00,22.6,11.9,29.97,NW,325,6.0,6.0,63,0.00,,,0.00,Wunderground v.1.15,2013-03-17 13:30:00,
2013-03-17 09:35:00,22.7,12.0,29.97,NW,324,6.0,6.0,63,0.00,,,0.00,Wunderground v.1.15,2013-03-17 13:35:00,
2013-03-17 09:40:00,23.1,12.0,29.97,NW,319,5.0,5.0,62,0.00,,,0.00,Wunderground v.1.15,2013-03-17 13:40:00,
2013-03-17 09:45:00,23.3,13.3,29.97,NNW,334,6.0,6.0,65,0.00,,,0.00,Wunderground v.1.15,2013-03-17 13:45:00,
2013-03-17 09:50:00,23.4,11.9,29.97,NW,322,7.0,8.0,61,0.00,,,0.00,Wunderground v.1.15,2013-03-17 13:50:00,
2013-03-17 09:55:00,23.6,13.5,29.97,NW,317,7.0,9.0,65,0.00,,,0.00,Wunderground v.1.15,2013-03-17 13:55:00,
2013-03-17 10:05:00,23.7,13.6,29.98,NW,318,10.0,12.0,65,0.00,,,0.00,Wunderground v.1.15,2013-03-17 14:05:00,
2013-03-17 10:15:00,24.6,13.1,29.98,NW,324,9.0,10.0,61,0.00,,,0.00,Wunderground v.1.15,2013-03-17 14:15:00,
2013-03-17 10:20:00,24.7,13.1,29.98,WNW,292,9.0,9.0,61,0.00,,,0.00,Wunderground v.1.15,2013-03-17 14:20:00,
2013-03-17 10:25:00,24.8,14.0,29.99,NW,310,9.0,9.0,63,0.00,,,0.00,Wunderground v.1.15,2013-03-17 14:25:00,
2013-03-17 10:30:00,24.7,14.2,29.98,NNW,331,9.0,9.0,64,0.00,,,0.00,Wunderground v.1.15,2013-03-17 14:30:00,
2013-03-17 10:35:00,24.8,12.5,29.98,NW,314,9.0,9.0,59,0.00,,,0.00,Wunderground v.1.15,2013-03-17 14:35:00,
2013-03-17 10:45:00,24.5,14.1,29.99,NW,311,10.0,11.0,64,0.00,,,0.00,Wunderground v.1.15,2013-03-17 14:45:00,
2013-03-17 10:50:00,24.7,14.2,29.99,NW,325,11.0,11.0,64,0.00,,,0.00,Wunderground v.1.15,2013-03-17 14:50:00,
2013-03-17 10:55:00,24.8,14.0,29.99,NNW,334,10.0,11.0,63,0.00,,,0.00,Wunderground v.1.15,2013-03-17 14:55:00,
2013-03-17 11:00:00,24.9,14.1,29.99,NW,326,11.0,11.0,63,0.00,,,0.00,Wunderground v.1.15,2013-03-17 15:00:00,
2013-03-17 11:10:00,25.3,14.5,29.99,NNW,331,11.0,12.0,63,0.00,,,0.00,Wunderground v.1.15,2013-03-17 15:10:00,
2013-03-17 11:20:00,25.7,13.7,30.00,NNW,343,10.0,14.0,60,0.00,,,0.00,Wunderground v.1.15,2013-03-17 15:20:00,
2013-03-17 11:25:00,25.8,13.8,30.00,NNW,331,11.0,14.0,60,0.00,,,0.00,Wunderground v.1.15,2013-03-17 15:25:00,
2013-03-17 11:30:00,26.0,15.1,30.00,NNW,334,12.0,12.0,63,0.00,,,0.00,Wunderground v.1.15,2013-03-17 15:30:00,
2013-03-17 11:40:00,26.3,13.5,30.01,NW,319,11.0,13.0,58,0.00,,,0.00,Wunderground v.1.15,2013-03-17 15:40:00,
2013-03-17 11:45:00,26.2,14.6,30.01,WNW,296,11.0,16.0,61,0.00,,,0.00,Wunderground v.1.15,2013-03-17 15:45:00,
2013-03-17 11:55:00,26.0,13.6,30.01,NW,320,13.0,14.0,59,0.00,,,0.00,Wunderground v.1.15,2013-03-17 15:55:00,
2013-03-17 12:00:00,26.1,12.9,30.01,NW,319,13.0,13.0,57,0.00,,,0.00,Wunderground v.1.15,2013-03-17 16:00:00,
2013-03-17 12:05:00,26.2,13.4,30.01,WNW,296,12.0,13.0,58,0.00,,,0.00,Wunderground v.1.15,2013-03-17 16:05:00,
2013-03-17 12:10:00,26.0,15.1,30.01,NW,312,13.0,15.0,63,0.00,,,0.00,Wunderground v.1.15,2013-03-17 16:10:00,
2013-03-17 12:15:00,25.7,15.2,30.01,NW,321,14.0,15.0,64,0.00,,,0.00,Wunderground v.1.15,2013-03-17 16:15:00,
2013-03-17 12:25:00,25.4,14.9,30.01,NW,323,14.0,15.0,64,0.00,,,0.00,Wunderground v.1.15,2013-03-17 16:25:00,
2013-03-17 12:30:00,25.3,15.9,30.02,North,350,15.0,15.0,67,0.00,,,0.00,Wunderground v.1.15,2013-03-17 16:30:00,
2013-03-17 12:40:00,25.5,13.5,30.02,NNW,330,15.0,15.0,60,0.00,,,0.00,Wunderground v.1.15,2013-03-17 16:40:00,
2013-03-17 12:45:00,25.9,13.1,30.02,NW,317,15.0,15.0,58,0.00,,,0.00,Wunderground v.1.15,2013-03-17 16:45:00,
2013-03-17 12:50:00,26.2,11.4,30.02,NW,315,14.0,15.0,53,0.00,,,0.00,Wunderground v.1.15,2013-03-17 16:50:00,
2013-03-17 13:00:00,26.9,11.2,30.02,NNW,327,13.0,15.0,51,0.00,,,0.00,Wunderground v.1.15,2013-03-17 17:00:00,
2013-03-17 13:10:00,26.6,13.8,30.02,NW,313,14.0,14.0,58,0.00,,,0.00,Wunderground v.1.15,2013-03-17 17:10:00,
2013-03-17 13:15:00,26.8,13.2,30.02,NNW,327,13.0,14.0,56,0.00,,,0.00,Wunderground v.1.15,2013-03-17 17:15:00,
2013-03-17 13:25:00,27.0,14.2,30.02,NNW,338,13.0,14.0,58,0.00,,,0.00,Wunderground v.1.15,2013-03-17 17:25:00,
2013-03-17 13:35:00,26.5,12.5,30.03,NW,317,15.0,21.0,55,0.00,,,0.00,Wunderground v.1.15,2013-03-17 17:35:00,
2013-03-17 13:40:00,26.2,13.8,30.03,NNW,333,16.0,16.0,59,0.00,,,0.00,Wunderground v.1.15,2013-03-17 17:40:00,
2013-03-17 13:45:00,26.4,12.0,30.03,NW,323,16.0,16.0,54,0.00,,,0.00,Wunderground v.1.15,2013-03-17 17:45:00,
2013-03-17 13:50:00,26.9,14.1,30.03,NW,304,15.0,16.0,58,0.00,,,0.00,Wunderground v.1.15,2013-03-17 17:50:00,
2013-03-17 13:55:00,26.9,14.1,30.03,NW,323,14.0,17.0,58,0.00,,,0.00,Wunderground v.1.15,2013-03-17 17:55:00,
2013-03-17 14:00:00,26.6,13.8,30.03,NNW,332,16.0,16.0,58,0.00,,,0.00,Wunderground v.1.15,2013-03-17 18:00:00,
2013-03-17 14:10:00,26.5,14.9,30.03,WNW,300,16.0,16.0,61,0.00,,,0.00,Wunderground v.1.15,2013-03-17 18:10:00,
2013-03-17 14:15:00,26.1,14.5,30.04,NNW,346,16.0,17.0,61,0.00,,,0.00,Wunderground v.1.15,2013-03-17 18:15:00,
2013-03-17 14:20:00,25.8,13.8,30.04,WNW,300,16.0,19.0,60,0.00,,,0.00,Wunderground v.1.15,2013-03-17 18:20:00,
2013-03-17 14:30:00,26.3,11.0,30.04,NNW,339,15.0,15.0,52,0.00,,,0.00,Wunderground v.1.15,2013-03-17 18:30:00,
2013-03-17 14:35:00,26.4,10.3,30.04,NNW,331,16.0,16.0,50,0.00,,,0.00,Wunderground v.1.15,2013-03-17 18:35:00,
2013-03-17 14:45:00,26.6,10.0,30.03,NNW,329,13.0,15.0,49,0.00,,,0.00,Wunderground v.1.15,2013-03-17 18:45:00,
2013-03-17 14:50:00,26.8,11.5,30.04,NNW,340,12.0,16.0,52,0.00,,,0.00,Wunderground v.1.15,2013-03-17 18:50:00,
2013-03-17 14:55:00,26.9,11.6,30.04,NNW,327,12.0,16.0,52,0.00,,,0.00,Wunderground v.1.15,2013-03-17 18:55:00,
2013-03-17 15:00:00,26.6,13.4,30.04,NW,319,15.0,21.0,57,0.00,,,0.00,Wunderground v.1.15,2013-03-17 19:00:00,
2013-03-17 15:05:00,26.0,14.0,30.03,NNW,336,16.0,21.0,60,0.00,,,0.00,Wunderground v.1.15,2013-03-17 19:05:00,
2013-03-17 15:15:00,25.9,12.3,30.04,NW,308,17.0,19.0,56,0.00,,,0.00,Wunderground v.1.15,2013-03-17 19:15:00,
2013-03-17 15:20:00,25.8,13.4,30.04,NW,313,17.0,20.0,59,0.00,,,0.00,Wunderground v.1.15,2013-03-17 19:20:00,
2013-03-17 15:25:00,26.0,12.0,30.04,NW,317,17.0,20.0,55,0.00,,,0.00,Wunderground v.1.15,2013-03-17 19:25:00,
2013-03-17 15:35:00,26.3,11.9,30.05,NW,307,15.0,16.0,54,0.00,,,0.00,Wunderground v.1.15,2013-03-17 19:35:00,
2013-03-17 15:40:00,26.5,13.3,30.05,NW,309,14.0,14.0,57,0.00,,,0.00,Wunderground v.1.15,2013-03-17 19:40:00,
2013-03-17 15:50:00,26.3,12.7,30.05,NW,317,15.0,19.0,56,0.00,,,0.00,Wunderground v.1.15,2013-03-17 19:50:00,
2013-03-17 15:55:00,26.0,12.8,30.05,NW,310,17.0,19.0,57,0.00,,,0.00,Wunderground v.1.15,2013-03-17 19:55:00,
2013-03-17 16:00:00,25.7,13.7,30.05,NW,316,18.0,22.0,60,0.00,,,0.00,Wunderground v.1.15,2013-03-17 20:00:00,
2013-03-17 16:05:00,25.6,14.0,30.05,NW,325,18.0,25.0,61,0.00,,,0.00,Wunderground v.1.15,2013-03-17 20:05:00,
2013-03-17 16:10:00,25.7,13.3,30.05,NW,325,19.0,19.0,59,0.00,,,0.00,Wunderground v.1.15,2013-03-17 20:10:00,
2013-03-17 16:15:00,25.7,13.3,30.05,NW,306,18.0,19.0,59,0.00,,,0.00,Wunderground v.1.15,2013-03-17 20:15:00,
2013-03-17 16:25:00,25.9,12.3,30.05,NW,315,18.0,19.0,56,0.00,,,0.00,Wunderground v.1.15,2013-03-17 20:25:00,
2013-03-17 16:35:00,25.8,10.1,30.06,NW,317,16.0,22.0,51,0.00,,,0.00,Wunderground v.1.15,2013-03-17 20:35:00,
2013-03-17 16:40:00,25.5,12.8,30.06,NW,314,17.0,17.0,58,0.00,,,0.00,Wunderground v.1.15,2013-03-17 20:40:00,
2013-03-17 16:45:00,25.5,12.0,30.06,NW,319,17.0,17.0,56,0.00,,,0.00,Wunderground v.1.15,2013-03-17 20:45:00,
2013-03-17 16:50:00,25.6,12.9,30.06,NNW,333,17.0,17.0,58,0.00,,,0.00,Wunderground v.1.15,2013-03-17 20:50:00,
2013-03-17 17:00:00,25.9,10.7,30.06,NNW,327,17.0,23.0,52,0.00,,,0.00,Wunderground v.1.15,2013-03-17 21:00:00,
2013-03-17 17:05:00,25.6,12.1,30.07,NW,309,17.0,23.0,56,0.00,,,0.00,Wunderground v.1.15,2013-03-17 21:05:00,
2013-03-17 17:10:00,25.4,11.9,30.07,NNW,341,17.0,17.0,56,0.00,,,0.00,Wunderground v.1.15,2013-03-17 21:10:00,
2013-03-17 17:15:00,25.4,12.3,30.07,NW,313,17.0,17.0,57,0.00,,,0.00,Wunderground v.1.15,2013-03-17 21:15:00,
2013-03-17 17:20:00,25.4,11.5,30.07,NNW,336,16.0,16.0,55,0.00,,,0.00,Wunderground v.1.15,2013-03-17 21:20:00,
2013-03-17 17:25:00,25.5,12.0,30.08,NW,321,16.0,16.0,56,0.00,,,0.00,Wunderground v.1.15,2013-03-17 21:25:00,
2013-03-17 17:30:00,25.7,11.3,30.08,NNW,341,16.0,16.0,54,0.00,,,0.00,Wunderground v.1.15,2013-03-17 21:30:00,
2013-03-17 17:35:00,25.4,10.6,30.08,NW,319,15.0,16.0,53,0.00,,,0.00,Wunderground v.1.15,2013-03-17 21:35:00,
2013-03-17 17:45:00,24.8,12.9,30.09,NNW,339,17.0,17.0,60,0.00,,,0.00,Wunderground v.1.15,2013-03-17 21:45:00,
2013-03-17 17:50:00,25.0,10.7,30.08,NNW,338,16.0,18.0,54,0.00,,,0.00,Wunderground v.1.15,2013-03-17 21:50:00,
2013-03-17 17:55:00,24.9,11.4,30.08,NW,309,15.0,20.0,56,0.00,,,0.00,Wunderground v.1.15,2013-03-17 21:55:00,
2013-03-17 18:00:00,24.8,11.3,30.09,NNW,340,16.0,21.0,56,0.00,,,0.00,Wunderground v.1.15,2013-03-17 22:00:00,
2013-03-17 18:05:00,24.8,11.3,30.09,NNW,328,17.0,23.0,56,0.00,,,0.00,Wunderground v.1.15,2013-03-17 22:05:00,
2013-03-17 18:10:00,24.7,10.8,30.10,NNW,334,18.0,18.0,55,0.00,,,0.00,Wunderground v.1.15,2013-03-17 22:10:00,
2013-03-17 18:15:00,24.6,9.9,30.10,WNW,303,18.0,18.0,53,0.00,,,0.00,Wunderground v.1.15,2013-03-17 22:15:00,
2013-03-17 18:20:00,24.7,9.5,30.10,NNW,327,16.0,16.0,52,0.00,,,0.00,Wunderground v.1.15,2013-03-17 22:20:00,
2013-03-17 18:25:00,24.6,9.9,30.11,NW,325,15.0,17.0,53,0.00,,,0.00,Wunderground v.1.15,2013-03-17 22:25:00,
2013-03-17 18:30:00,24.3,10.8,30.11,NW,317,15.0,15.0,56,0.00,,,0.00,Wunderground v.1.15,2013-03-17 22:30:00,
2013-03-17 18:40:00,24.4,9.3,30.12,NW,326,13.0,13.0,52,0.00,,,0.00,Wunderground v.1.15,2013-03-17 22:40:00,
2013-03-17 18:45:00,24.4,7.9,30.12,NW,314,12.0,13.0,49,0.00,,,0.00,Wunderground v.1.15,2013-03-17 22:45:00,
2013-03-17 18:55:00,24.3,7.4,30.13,NW,306,12.0,12.0,48,0.00,,,0.00,Wunderground v.1.15,2013-03-17 22:55:00,
2013-03-17 19:00:00,24.2,6.8,30.13,NNW,338,12.0,12.0,47,0.00,,,0.00,Wunderground v.1.15,2013-03-17 23:00:00,
2013-03-17 19:10:00,24.0,8.5,30.13,WNW,300,11.0,12.0,51,0.00,,,0.00,Wunderground v.1.15,2013-03-17 23:10:00,
2013-03-17 19:15:00,23.8,6.0,30.14,North,355,11.0,14.0,46,0.00,,,0.00,Wunderground v.1.15,2013-03-17 23:15:00,
2013-03-17 19:20:00,23.8,7.4,30.14,NW,324,11.0,15.0,49,0.00,,,0.00,Wunderground v.1.15,2013-03-17 23:20:00,
2013-03-17 19:25:00,23.6,6.8,30.15,NW,317,12.0,15.0,48,0.00,,,0.00,Wunderground v.1.15,2013-03-17 23:25:00,
2013-03-17 19:30:00,23.7,6.8,30.16,NNW,330,11.0,11.0,48,0.00,,,0.00,Wunderground v.1.15,2013-03-17 23:30:00,
2013-03-17 19:35:00,23.7,5.9,30.16,NNW,331,10.0,11.0,46,0.00,,,0.00,Wunderground v.1.15,2013-03-17 23:35:00,
2013-03-17 19:40:00,23.7,5.9,30.17,NW,312,9.0,9.0,46,0.00,,,0.00,Wunderground v.1.15,2013-03-17 23:40:00,
2013-03-17 19:45:00,23.6,5.8,30.17,NW,323,9.0,12.0,46,0.00,,,0.00,Wunderground v.1.15,2013-03-17 23:45:00,
2013-03-17 19:50:00,23.6,4.8,30.18,NW,321,9.0,9.0,44,0.00,,,0.00,Wunderground v.1.15,2013-03-17 23:50:00,
2013-03-17 19:55:00,23.5,5.7,30.18,NNW,345,9.0,10.0,46,0.00,,,0.00,Wunderground v.1.15,2013-03-17 23:55:00,
2013-03-17 20:05:00,23.3,6.0,30.18,NW,323,11.0,13.0,47,0.00,,,0.00,Wunderground v.1.15,2013-03-18 00:05:00,
2013-03-17 20:10:00,23.1,6.3,30.19,WNW,300,12.0,12.0,48,0.00,,,0.00,Wunderground v.1.15,2013-03-18 00:10:00,
2013-03-17 20:20:00,22.9,7.0,30.19,NW,319,11.0,11.0,50,0.00,,,0.00,Wunderground v.1.15,2013-03-18 00:20:00,
2013-03-17 20:25:00,22.9,6.1,30.20,NNW,328,10.0,11.0,48,0.00,,,0.00,Wunderground v.1.15,2013-03-18 00:25:00,
2013-03-17 20:30:00,22.8,6.5,30.20,North,355,9.0,10.0,49,0.00,,,0.00,Wunderground v.1.15,2013-03-18 00:30:00,
2013-03-17 20:35:00,22.6,6.7,30.20,North,355,8.0,10.0,50,0.00,,,0.00,Wunderground v.1.15,2013-03-18 00:35:00,
2013-03-17 20:40:00,22.5,6.6,30.21,NW,306,7.0,7.0,50,0.00,,,0.00,Wunderground v.1.15,2013-03-18 00:40:00,
2013-03-17 20:45:00,22.3,7.3,30.21,NNW,338,6.0,7.0,52,0.00,,,0.00,Wunderground v.1.15,2013-03-18 00:45:00,
2013-03-17 20:50:00,22.2,7.2,30.22,North,5,6.0,6.0,52,0.00,,,0.00,Wunderground v.1.15,2013-03-18 00:50:00,
2013-03-17 20:55:00,22.1,7.6,30.22,NNW,327,6.0,6.0,53,0.00,,,0.00,Wunderground v.1.15,2013-03-18 00:55:00,
2013-03-17 21:05:00,21.9,6.1,30.23,NNW,348,6.0,6.0,50,0.00,,,0.00,Wunderground v.1.15,2013-03-18 01:05:00,
2013-03-17 21:10:00,21.8,6.0,30.23,NNW,338,6.0,6.0,50,0.00,,,0.00,Wunderground v.1.15,2013-03-18 01:10:00,
2013-03-17 21:15:00,21.6,6.7,30.23,NNW,338,6.0,6.0,52,0.00,,,0.00,Wunderground v.1.15,2013-03-18 01:15:00,
2013-03-17 21:20:00,21.4,6.0,30.24,North,355,6.0,7.0,51,0.00,,,0.00,Wunderground v.1.15,2013-03-18 01:20:00,
2013-03-17 21:25:00,21.5,6.1,30.24,NW,315,6.0,7.0,51,0.00,,,0.00,Wunderground v.1.15,2013-03-18 01:25:00,
2013-03-17 21:30:00,21.5,5.7,30.24,NW,321,7.0,7.0,50,0.00,,,0.00,Wunderground v.1.15,2013-03-18 01:30:00,
2013-03-17 21:35:00,21.6,6.2,30.24,NW,319,9.0,11.0,51,0.00,,,0.00,Wunderground v.1.15,2013-03-18 01:35:00,
2013-03-17 21:40:00,21.3,6.4,30.24,NNW,328,10.0,10.0,52,0.00,,,0.00,Wunderground v.1.15,2013-03-18 01:40:00,
2013-03-17 21:45:00,21.3,6.0,30.24,WNW,302,10.0,10.0,51,0.00,,,0.00,Wunderground v.1.15,2013-03-18 01:45:00,
2013-03-17 21:55:00,21.1,7.0,30.24,NNW,331,11.0,11.0,54,0.00,,,0.00,Wunderground v.1.15,2013-03-18 01:55:00,
2013-03-17 22:04:00,20.7,7.5,30.25,NW,323,10.0,11.0,56,0.00,,,0.00,Wunderground v.1.15,2013-03-18 02:04:00,
2013-03-17 22:10:00,20.7,6.2,30.25,NW,319,10.0,10.0,53,0.00,,,0.00,Wunderground v.1.15,2013-03-18 02:10:00,
2013-03-17 22:15:00,20.7,5.8,30.25,NNW,338,10.0,11.0,52,0.00,,,0.00,Wunderground v.1.15,2013-03-18 02:15:00,
2013-03-17 22:20:00,20.7,6.2,30.25,NW,324,10.0,10.0,53,0.00,,,0.00,Wunderground v.1.15,2013-03-18 02:20:00,
2013-03-17 22:25:00,20.5,7.3,30.25,NNW,332,10.0,10.0,56,0.00,,,0.00,Wunderground v.1.15,2013-03-18 02:25:00,
2013-03-17 22:35:00,20.5,6.1,30.26,NW,316,8.0,9.0,53,0.00,,,0.00,Wunderground v.1.15,2013-03-18 02:35:00,
2013-03-17 22:40:00,20.4,6.0,30.26,NNW,341,7.0,7.0,53,0.00,,,0.00,Wunderground v.1.15,2013-03-18 02:40:00,
2013-03-17 22:45:00,20.3,5.9,30.26,NW,311,7.0,7.0,53,0.00,,,0.00,Wunderground v.1.15,2013-03-18 02:45:00,
2013-03-17 22:50:00,20.0,7.2,30.27,NW,308,7.0,8.0,57,0.00,,,0.00,Wunderground v.1.15,2013-03-18 02:50:00,
2013-03-17 22:55:00,20.0,6.0,30.27,NW,309,7.0,8.0,54,0.00,,,0.00,Wunderground v.1.15,2013-03-18 02:55:00,
2013-03-17 23:00:00,19.9,5.9,30.27,NW,308,7.0,7.0,54,0.00,,,0.00,Wunderground v.1.15,2013-03-18 03:00:00,
2013-03-17 23:10:00,19.8,5.4,30.28,WNW,302,6.0,6.0,53,0.00,,,0.00,Wunderground v.1.15,2013-03-18 03:10:00,
2013-03-17 23:15:00,19.7,4.5,30.28,NNW,327,4.0,6.0,51,0.00,,,0.00,Wunderground v.1.15,2013-03-18 03:15:00,
2013-03-17 23:25:00,19.6,3.1,30.28,NNW,327,1.0,5.0,48,0.00,,,0.00,Wunderground v.1.15,2013-03-18 03:25:00,
2013-03-17 23:30:00,19.4,4.6,30.29,NNW,327,1.0,1.0,52,0.00,,,0.00,Wunderground v.1.15,2013-03-18 03:30:00,
2013-03-17 23:35:00,19.3,3.2,30.29,NE,55,1.0,5.0,49,0.00,,,0.00,Wunderground v.1.15,2013-03-18 03:35:00,
2013-03-17 23:40:00,19.3,3.7,30.29,NNW,348,1.0,5.0,50,0.00,,,0.00,Wunderground v.1.15,2013-03-18 03:40:00,
2013-03-17 23:45:00,19.3,3.2,30.29,NW,315,2.0,5.0,49,0.00,,,0.00,Wunderground v.1.15,2013-03-18 03:45:00,
2013-03-17 23:50:00,19.4,5.0,30.29,NW,322,3.0,5.0,53,0.00,,,0.00,Wunderground v.1.15,2013-03-18 03:50:00,
2013-03-17 23:55:00,19.1,6.3,30.28,NW,322,4.0,5.0,57,0.00,,,0.00,Wunderground v.1.15,2013-03-18 03:55:00,